Toronto City

CXTO · 安大略, 加拿大

罗盘
风向 的 风向 330°
风向 到 风: 16 kt, 阵阵 21 kt, 4 beaufort

添加一条跑道以查看侧风和逆风信息。

添置 跑道
0 2.000 4.000 6.000 8.000 10.000
FEW 2.500 ft
SCT 6.000 ft
BKN 10.000 ft
METAR CYYZ 070900Z 33016G21KT 15SM FEW025 SCT060 BKN100 12/07 A2995 RMK CF2SC1AC4 SLP144

METAR Toronto City - CXTO

Toronto City是多伦多,加拿大中的未知。 视场标高为377 ft。 该领域的国际民航组织标志是CXTO.

这份报告是针对2022年10月7日 05:00, 当地时间在多倫多皮爾遜國際機場进行的。

机场观察

风向为330°,速度为16 kt。 已测得21 kt的阵风。

可见度为15 mi。

有几云在2.500 ft的高度, 疏云,零星散落的云朵在6.000 ft的高度 和 碎云在10.000 ft的高度。 破损或更高的上限为10.000 ft。

温度和风寒是12 °C。 露点为7 °C,相对湿度为72%。 海平面上的气压为29,95 inHg (QNH)。

白天

今天,太阳从07:22升起,在18:48降落。 这适用于Toronto City,世界夏令时可能有所不同。 当地时间与世界标准时间之间的时差为-4 小时。 夏令时目前正在进行中。

公司介绍

我们没有关于这个机场的公司信息。

体会

到Vliegles.nl去找飞行课程,跳伞和其他飞行体验。 浏览页面,了解Toronto City附近所有可用的活动。 你也可以使用搜索功能来寻找你所在地附近的特定飞行课程、跳伞或其他飞行体验。

乌云

2.500 ft FEW 几云
6.000 ft SCT 疏云,零星散落的云朵
10.000 ft BKN 碎云

温度 & 天气

温度 12 °C
露点 7 °C
相对湿度 72%
Kp-index 1 (0-9)

评论

SLP144海平面压力为29,96 inHg (29,96 inHg)
CF2SC1AC4

白天

日出
07:23 (2h 09m)
中午
13:06
日落
18:49

小工具

你想在你的网站上有一个关于Toronto City的当前航空天气(METAR)的小部件吗?

</> 显示HTML代码

我们和第三方通过cookies跟踪您在我们网站上的上网行为。如果您继续,我们认为您同意我们的cookie政策。 了解更多